sensor_id;sensor_type;location;lat;lon;timestamp;P1;durP1;ratioP1;P2;durP2;ratioP2
5040;SDS011;2539;52.568;13.364;2022-12-04T00:01:15;82.27;;;37.73;;
5040;SDS011;2539;52.568;13.364;2022-12-04T00:03:43;76.40;;;38.20;;
5040;SDS011;2539;52.568;13.364;2022-12-04T00:06:13;71.33;;;38.10;;
5040;SDS011;2539;52.568;13.364;2022-12-04T00:08:42;81.00;;;37.63;;
5040;SDS011;2539;52.568;13.364;2022-12-04T00:11:11;76.63;;;38.23;;
5040;SDS011;2539;52.568;13.364;2022-12-04T00:13:39;68.80;;;35.30;;
5040;SDS011;2539;52.568;13.364;2022-12-04T00:16:06;69.13;;;36.17;;
5040;SDS011;2539;52.568;13.364;2022-12-04T00:18:35;80.97;;;39.37;;
5040;SDS011;2539;52.568;13.364;2022-12-04T00:21:03;76.87;;;34.63;;
5040;SDS011;2539;52.568;13.364;2022-12-04T00:23:34;78.90;;;37.40;;
5040;SDS011;2539;52.568;13.364;2022-12-04T00:26:02;73.80;;;36.90;;
5040;SDS011;2539;52.568;13.364;2022-12-04T00:28:30;76.13;;;36.90;;
5040;SDS011;2539;52.568;13.364;2022-12-04T00:30:57;74.77;;;36.00;;
5040;SDS011;2539;52.568;13.364;2022-12-04T00:33:24;86.10;;;37.03;;
5040;SDS011;2539;52.568;13.364;2022-12-04T00:35:57;78.60;;;36.90;;
5040;SDS011;2539;52.568;13.364;2022-12-04T00:38:24;80.40;;;39.87;;
5040;SDS011;2539;52.568;13.364;2022-12-04T00:40:50;83.27;;;38.67;;
5040;SDS011;2539;52.568;13.364;2022-12-04T00:43:17;78.10;;;36.80;;
5040;SDS011;2539;52.568;13.364;2022-12-04T00:45:43;84.87;;;37.53;;
5040;SDS011;2539;52.568;13.364;2022-12-04T00:48:09;78.40;;;39.40;;
5040;SDS011;2539;52.568;13.364;2022-12-04T00:50:35;72.80;;;37.13;;
5040;SDS011;2539;52.568;13.364;2022-12-04T00:53:02;75.10;;;37.77;;
5040;SDS011;2539;52.568;13.364;2022-12-04T00:55:29;79.33;;;37.50;;
5040;SDS011;2539;52.568;13.364;2022-12-04T00:57:55;73.33;;;36.63;;
5040;SDS011;2539;52.568;13.364;2022-12-04T01:00:21;87.83;;;37.60;;
5040;SDS011;2539;52.568;13.364;2022-12-04T01:02:48;83.37;;;39.63;;
5040;SDS011;2539;52.568;13.364;2022-12-04T01:05:14;89.03;;;39.13;;
5040;SDS011;2539;52.568;13.364;2022-12-04T01:07:41;89.63;;;39.10;;
5040;SDS011;2539;52.568;13.364;2022-12-04T01:10:07;82.43;;;37.13;;
5040;SDS011;2539;52.568;13.364;2022-12-04T01:12:36;84.57;;;39.67;;
5040;SDS011;2539;52.568;13.364;2022-12-04T01:15:03;89.50;;;40.07;;
5040;SDS011;2539;52.568;13.364;2022-12-04T01:17:30;93.70;;;41.43;;
5040;SDS011;2539;52.568;13.364;2022-12-04T01:19:56;77.63;;;39.17;;
5040;SDS011;2539;52.568;13.364;2022-12-04T01:22:22;91.47;;;39.77;;
5040;SDS011;2539;52.568;13.364;2022-12-04T01:24:48;90.83;;;41.10;;
5040;SDS011;2539;52.568;13.364;2022-12-04T01:27:15;86.47;;;39.13;;
5040;SDS011;2539;52.568;13.364;2022-12-04T01:29:41;92.03;;;41.40;;
5040;SDS011;2539;52.568;13.364;2022-12-04T01:32:07;105.80;;;42.13;;
5040;SDS011;2539;52.568;13.364;2022-12-04T01:34:34;93.93;;;42.57;;
5040;SDS011;2539;52.568;13.364;2022-12-04T01:37:01;91.03;;;40.23;;
5040;SDS011;2539;52.568;13.364;2022-12-04T01:39:27;87.80;;;39.90;;
5040;SDS011;2539;52.568;13.364;2022-12-04T01:41:53;86.63;;;39.80;;
5040;SDS011;2539;52.568;13.364;2022-12-04T01:44:20;93.77;;;41.13;;
5040;SDS011;2539;52.568;13.364;2022-12-04T01:46:52;99.57;;;43.63;;
5040;SDS011;2539;52.568;13.364;2022-12-04T01:49:23;97.03;;;39.67;;
5040;SDS011;2539;52.568;13.364;2022-12-04T01:52:10;101.10;;;43.00;;
5040;SDS011;2539;52.568;13.364;2022-12-04T01:54:40;95.10;;;41.33;;
5040;SDS011;2539;52.568;13.364;2022-12-04T01:57:16;95.50;;;42.27;;
5040;SDS011;2539;52.568;13.364;2022-12-04T01:59:54;90.80;;;39.83;;
5040;SDS011;2539;52.568;13.364;2022-12-04T02:02:35;98.47;;;42.73;;
5040;SDS011;2539;52.568;13.364;2022-12-04T02:05:05;89.03;;;40.27;;
5040;SDS011;2539;52.568;13.364;2022-12-04T02:07:32;111.30;;;44.87;;
5040;SDS011;2539;52.568;13.364;2022-12-04T02:10:00;112.93;;;45.57;;
5040;SDS011;2539;52.568;13.364;2022-12-04T02:15:28;99.67;;;44.67;;
5040;SDS011;2539;52.568;13.364;2022-12-04T02:20:38;100.53;;;44.40;;
5040;SDS011;2539;52.568;13.364;2022-12-04T02:23:33;109.83;;;44.67;;
5040;SDS011;2539;52.568;13.364;2022-12-04T02:28:59;108.70;;;45.70;;
5040;SDS011;2539;52.568;13.364;2022-12-04T02:32:06;106.37;;;44.67;;
5040;SDS011;2539;52.568;13.364;2022-12-04T02:34:54;92.83;;;41.80;;
5040;SDS011;2539;52.568;13.364;2022-12-04T02:37:36;103.20;;;44.10;;
5040;SDS011;2539;52.568;13.364;2022-12-04T02:42:52;114.60;;;44.57;;
5040;SDS011;2539;52.568;13.364;2022-12-04T02:45:26;102.43;;;41.13;;
5040;SDS011;2539;52.568;13.364;2022-12-04T02:47:57;115.33;;;44.80;;
5040;SDS011;2539;52.568;13.364;2022-12-04T02:50:26;107.37;;;43.00;;
5040;SDS011;2539;52.568;13.364;2022-12-04T02:53:00;106.77;;;42.13;;
5040;SDS011;2539;52.568;13.364;2022-12-04T02:55:33;114.97;;;44.57;;
5040;SDS011;2539;52.568;13.364;2022-12-04T02:58:07;115.17;;;44.80;;
5040;SDS011;2539;52.568;13.364;2022-12-04T03:00:37;107.70;;;44.07;;
5040;SDS011;2539;52.568;13.364;2022-12-04T03:03:07;116.23;;;45.43;;
5040;SDS011;2539;52.568;13.364;2022-12-04T03:08:46;117.33;;;43.77;;
5040;SDS011;2539;52.568;13.364;2022-12-04T03:11:21;104.73;;;41.57;;
5040;SDS011;2539;52.568;13.364;2022-12-04T03:13:50;117.37;;;43.80;;
5040;SDS011;2539;52.568;13.364;2022-12-04T03:16:26;114.43;;;45.43;;
5040;SDS011;2539;52.568;13.364;2022-12-04T03:18:55;102.33;;;42.00;;
5040;SDS011;2539;52.568;13.364;2022-12-04T03:21:27;114.77;;;45.20;;
5040;SDS011;2539;52.568;13.364;2022-12-04T03:24:18;105.50;;;43.30;;
5040;SDS011;2539;52.568;13.364;2022-12-04T03:27:00;112.57;;;42.47;;
5040;SDS011;2539;52.568;13.364;2022-12-04T03:29:53;114.40;;;44.37;;
5040;SDS011;2539;52.568;13.364;2022-12-04T03:32:30;93.63;;;41.27;;
5040;SDS011;2539;52.568;13.364;2022-12-04T03:35:13;108.90;;;43.73;;
5040;SDS011;2539;52.568;13.364;2022-12-04T03:37:55;107.53;;;43.63;;
5040;SDS011;2539;52.568;13.364;2022-12-04T03:40:34;107.00;;;42.93;;
5040;SDS011;2539;52.568;13.364;2022-12-04T03:43:12;85.87;;;33.07;;
5040;SDS011;2539;52.568;13.364;2022-12-04T03:48:21;104.03;;;42.50;;
5040;SDS011;2539;52.568;13.364;2022-12-04T03:51:02;103.57;;;40.57;;
5040;SDS011;2539;52.568;13.364;2022-12-04T03:53:52;101.20;;;43.30;;
5040;SDS011;2539;52.568;13.364;2022-12-04T03:56:22;109.33;;;44.30;;
5040;SDS011;2539;52.568;13.364;2022-12-04T03:58:54;98.53;;;41.17;;
5040;SDS011;2539;52.568;13.364;2022-12-04T04:01:27;102.50;;;42.90;;
5040;SDS011;2539;52.568;13.364;2022-12-04T04:04:05;101.33;;;42.83;;
5040;SDS011;2539;52.568;13.364;2022-12-04T04:06:40;101.90;;;41.70;;
5040;SDS011;2539;52.568;13.364;2022-12-04T04:09:12;107.97;;;43.93;;
5040;SDS011;2539;52.568;13.364;2022-12-04T04:11:48;106.87;;;41.50;;
5040;SDS011;2539;52.568;13.364;2022-12-04T04:14:20;110.50;;;43.60;;
5040;SDS011;2539;52.568;13.364;2022-12-04T04:17:08;98.23;;;40.23;;
5040;SDS011;2539;52.568;13.364;2022-12-04T04:19:58;103.47;;;41.87;;
5040;SDS011;2539;52.568;13.364;2022-12-04T04:22:47;99.67;;;42.20;;
5040;SDS011;2539;52.568;13.364;2022-12-04T04:25:35;103.93;;;41.30;;
5040;SDS011;2539;52.568;13.364;2022-12-04T04:28:04;98.77;;;41.07;;
5040;SDS011;2539;52.568;13.364;2022-12-04T04:30:31;103.07;;;41.00;;
5040;SDS011;2539;52.568;13.364;2022-12-04T04:33:07;91.50;;;40.70;;
5040;SDS011;2539;52.568;13.364;2022-12-04T04:41:04;97.03;;;42.47;;
5040;SDS011;2539;52.568;13.364;2022-12-04T04:43:36;103.90;;;41.10;;
5040;SDS011;2539;52.568;13.364;2022-12-04T04:46:11;100.67;;;42.20;;
5040;SDS011;2539;52.568;13.364;2022-12-04T04:48:44;109.03;;;42.60;;
5040;SDS011;2539;52.568;13.364;2022-12-04T04:51:13;100.57;;;41.47;;
5040;SDS011;2539;52.568;13.364;2022-12-04T04:53:47;101.07;;;41.20;;
5040;SDS011;2539;52.568;13.364;2022-12-04T04:56:16;105.20;;;39.57;;
5040;SDS011;2539;52.568;13.364;2022-12-04T04:58:44;95.77;;;39.70;;
5040;SDS011;2539;52.568;13.364;2022-12-04T05:01:11;98.27;;;43.13;;
5040;SDS011;2539;52.568;13.364;2022-12-04T05:03:39;112.53;;;42.43;;
5040;SDS011;2539;52.568;13.364;2022-12-04T05:06:05;99.07;;;40.10;;
5040;SDS011;2539;52.568;13.364;2022-12-04T05:08:31;103.50;;;41.93;;
5040;SDS011;2539;52.568;13.364;2022-12-04T05:10:58;99.97;;;42.50;;
5040;SDS011;2539;52.568;13.364;2022-12-04T05:13:24;107.13;;;42.00;;
5040;SDS011;2539;52.568;13.364;2022-12-04T05:18:27;91.47;;;37.43;;
5040;SDS011;2539;52.568;13.364;2022-12-04T05:20:54;100.70;;;40.73;;
5040;SDS011;2539;52.568;13.364;2022-12-04T05:23:20;95.13;;;41.40;;
5040;SDS011;2539;52.568;13.364;2022-12-04T05:25:46;96.87;;;41.77;;
5040;SDS011;2539;52.568;13.364;2022-12-04T05:28:13;91.13;;;39.40;;
5040;SDS011;2539;52.568;13.364;2022-12-04T05:30:40;90.83;;;39.87;;
5040;SDS011;2539;52.568;13.364;2022-12-04T05:33:06;95.40;;;39.97;;
5040;SDS011;2539;52.568;13.364;2022-12-04T05:35:34;87.10;;;39.30;;
5040;SDS011;2539;52.568;13.364;2022-12-04T05:38:00;85.50;;;37.90;;
5040;SDS011;2539;52.568;13.364;2022-12-04T05:40:26;98.00;;;40.40;;
5040;SDS011;2539;52.568;13.364;2022-12-04T05:42:53;87.63;;;40.10;;
5040;SDS011;2539;52.568;13.364;2022-12-04T05:45:19;100.47;;;40.77;;
5040;SDS011;2539;52.568;13.364;2022-12-04T05:47:45;87.93;;;36.33;;
5040;SDS011;2539;52.568;13.364;2022-12-04T05:50:12;102.43;;;41.07;;
5040;SDS011;2539;52.568;13.364;2022-12-04T05:52:38;93.30;;;39.77;;
5040;SDS011;2539;52.568;13.364;2022-12-04T05:55:05;100.53;;;39.97;;
5040;SDS011;2539;52.568;13.364;2022-12-04T05:57:31;91.67;;;39.87;;
5040;SDS011;2539;52.568;13.364;2022-12-04T05:59:58;95.70;;;39.77;;
5040;SDS011;2539;52.568;13.364;2022-12-04T06:02:24;98.80;;;40.73;;
5040;SDS011;2539;52.568;13.364;2022-12-04T06:04:50;89.30;;;37.87;;
5040;SDS011;2539;52.568;13.364;2022-12-04T06:07:16;87.40;;;38.97;;
5040;SDS011;2539;52.568;13.364;2022-12-04T06:09:43;100.23;;;41.77;;
5040;SDS011;2539;52.568;13.364;2022-12-04T06:12:09;92.23;;;38.67;;
5040;SDS011;2539;52.568;13.364;2022-12-04T06:14:35;91.73;;;39.37;;
5040;SDS011;2539;52.568;13.364;2022-12-04T06:17:01;103.87;;;41.03;;
5040;SDS011;2539;52.568;13.364;2022-12-04T06:19:28;102.33;;;44.80;;
5040;SDS011;2539;52.568;13.364;2022-12-04T06:21:54;96.13;;;40.57;;
5040;SDS011;2539;52.568;13.364;2022-12-04T06:24:21;92.07;;;40.90;;
5040;SDS011;2539;52.568;13.364;2022-12-04T06:26:49;88.37;;;40.30;;
5040;SDS011;2539;52.568;13.364;2022-12-04T06:29:19;98.60;;;42.57;;
5040;SDS011;2539;52.568;13.364;2022-12-04T06:31:46;91.23;;;38.73;;
5040;SDS011;2539;52.568;13.364;2022-12-04T06:34:11;86.47;;;37.50;;
5040;SDS011;2539;52.568;13.364;2022-12-04T06:36:37;92.83;;;38.97;;
5040;SDS011;2539;52.568;13.364;2022-12-04T06:39:03;90.97;;;39.47;;
5040;SDS011;2539;52.568;13.364;2022-12-04T06:41:29;93.33;;;40.50;;
5040;SDS011;2539;52.568;13.364;2022-12-04T06:43:56;101.10;;;38.23;;
5040;SDS011;2539;52.568;13.364;2022-12-04T06:46:24;90.67;;;40.00;;
5040;SDS011;2539;52.568;13.364;2022-12-04T06:48:53;95.20;;;40.50;;
5040;SDS011;2539;52.568;13.364;2022-12-04T06:51:24;86.67;;;38.70;;
5040;SDS011;2539;52.568;13.364;2022-12-04T06:53:53;94.67;;;39.03;;
5040;SDS011;2539;52.568;13.364;2022-12-04T06:56:20;92.87;;;39.90;;
5040;SDS011;2539;52.568;13.364;2022-12-04T06:58:49;90.57;;;38.30;;
5040;SDS011;2539;52.568;13.364;2022-12-04T07:01:18;91.87;;;38.77;;
5040;SDS011;2539;52.568;13.364;2022-12-04T07:03:47;95.40;;;40.40;;
5040;SDS011;2539;52.568;13.364;2022-12-04T07:06:15;89.73;;;39.30;;
5040;SDS011;2539;52.568;13.364;2022-12-04T07:08:44;77.53;;;34.93;;
5040;SDS011;2539;52.568;13.364;2022-12-04T07:11:12;85.97;;;38.67;;
5040;SDS011;2539;52.568;13.364;2022-12-04T07:13:39;98.37;;;40.07;;
5040;SDS011;2539;52.568;13.364;2022-12-04T07:16:07;80.93;;;37.93;;
5040;SDS011;2539;52.568;13.364;2022-12-04T07:18:35;90.70;;;39.10;;
5040;SDS011;2539;52.568;13.364;2022-12-04T07:21:05;91.70;;;39.57;;
5040;SDS011;2539;52.568;13.364;2022-12-04T07:23:33;90.00;;;40.83;;
5040;SDS011;2539;52.568;13.364;2022-12-04T07:26:06;85.97;;;39.00;;
5040;SDS011;2539;52.568;13.364;2022-12-04T07:28:34;85.77;;;37.40;;
5040;SDS011;2539;52.568;13.364;2022-12-04T07:31:06;88.03;;;37.30;;
5040;SDS011;2539;52.568;13.364;2022-12-04T07:33:33;85.90;;;39.10;;
5040;SDS011;2539;52.568;13.364;2022-12-04T07:35:59;94.70;;;39.20;;
5040;SDS011;2539;52.568;13.364;2022-12-04T07:38:27;91.10;;;41.17;;
5040;SDS011;2539;52.568;13.364;2022-12-04T07:40:56;92.40;;;38.83;;
5040;SDS011;2539;52.568;13.364;2022-12-04T07:43:24;93.90;;;40.33;;
5040;SDS011;2539;52.568;13.364;2022-12-04T07:45:51;93.47;;;38.27;;
5040;SDS011;2539;52.568;13.364;2022-12-04T07:48:18;87.33;;;38.40;;
5040;SDS011;2539;52.568;13.364;2022-12-04T07:50:44;80.57;;;34.53;;
5040;SDS011;2539;52.568;13.364;2022-12-04T07:53:10;93.77;;;39.47;;
5040;SDS011;2539;52.568;13.364;2022-12-04T07:55:37;88.00;;;38.47;;
5040;SDS011;2539;52.568;13.364;2022-12-04T07:58:03;92.60;;;37.67;;
5040;SDS011;2539;52.568;13.364;2022-12-04T08:00:30;84.73;;;38.47;;
5040;SDS011;2539;52.568;13.364;2022-12-04T08:02:56;84.03;;;37.60;;
5040;SDS011;2539;52.568;13.364;2022-12-04T08:05:22;91.03;;;36.57;;
5040;SDS011;2539;52.568;13.364;2022-12-04T08:07:49;83.53;;;35.40;;
5040;SDS011;2539;52.568;13.364;2022-12-04T08:10:15;80.90;;;35.07;;
5040;SDS011;2539;52.568;13.364;2022-12-04T08:12:41;94.40;;;39.37;;
5040;SDS011;2539;52.568;13.364;2022-12-04T08:15:08;83.60;;;36.90;;
5040;SDS011;2539;52.568;13.364;2022-12-04T08:17:34;101.77;;;41.77;;
5040;SDS011;2539;52.568;13.364;2022-12-04T08:20:01;85.77;;;38.33;;
5040;SDS011;2539;52.568;13.364;2022-12-04T08:22:27;77.80;;;34.83;;
5040;SDS011;2539;52.568;13.364;2022-12-04T08:24:54;89.40;;;37.83;;
5040;SDS011;2539;52.568;13.364;2022-12-04T08:27:19;91.20;;;41.57;;
5040;SDS011;2539;52.568;13.364;2022-12-04T08:29:45;90.13;;;40.37;;
5040;SDS011;2539;52.568;13.364;2022-12-04T08:32:11;92.90;;;36.90;;
5040;SDS011;2539;52.568;13.364;2022-12-04T08:34:37;89.03;;;37.57;;
5040;SDS011;2539;52.568;13.364;2022-12-04T08:37:03;94.37;;;40.53;;
5040;SDS011;2539;52.568;13.364;2022-12-04T08:39:30;84.53;;;35.50;;
5040;SDS011;2539;52.568;13.364;2022-12-04T08:41:56;91.67;;;37.97;;
5040;SDS011;2539;52.568;13.364;2022-12-04T08:44:23;92.70;;;38.90;;
5040;SDS011;2539;52.568;13.364;2022-12-04T08:46:49;90.60;;;38.30;;
5040;SDS011;2539;52.568;13.364;2022-12-04T08:49:15;92.47;;;38.77;;
5040;SDS011;2539;52.568;13.364;2022-12-04T08:51:41;84.43;;;37.17;;
5040;SDS011;2539;52.568;13.364;2022-12-04T08:54:07;93.90;;;39.37;;
5040;SDS011;2539;52.568;13.364;2022-12-04T08:56:35;87.47;;;37.13;;
5040;SDS011;2539;52.568;13.364;2022-12-04T08:59:02;91.30;;;37.50;;
5040;SDS011;2539;52.568;13.364;2022-12-04T09:01:28;82.90;;;36.80;;
5040;SDS011;2539;52.568;13.364;2022-12-04T09:03:55;93.53;;;39.20;;
5040;SDS011;2539;52.568;13.364;2022-12-04T09:06:22;94.67;;;40.43;;
5040;SDS011;2539;52.568;13.364;2022-12-04T09:08:53;88.17;;;42.43;;
5040;SDS011;2539;52.568;13.364;2022-12-04T09:11:21;95.03;;;38.20;;
5040;SDS011;2539;52.568;13.364;2022-12-04T09:13:49;83.60;;;37.13;;
5040;SDS011;2539;52.568;13.364;2022-12-04T09:16:17;72.53;;;33.80;;
5040;SDS011;2539;52.568;13.364;2022-12-04T09:18:46;90.53;;;37.97;;
5040;SDS011;2539;52.568;13.364;2022-12-04T09:21:13;83.70;;;38.60;;
5040;SDS011;2539;52.568;13.364;2022-12-04T09:23:40;84.50;;;39.10;;
5040;SDS011;2539;52.568;13.364;2022-12-04T09:26:15;83.87;;;36.23;;
5040;SDS011;2539;52.568;13.364;2022-12-04T09:28:53;92.97;;;36.63;;
5040;SDS011;2539;52.568;13.364;2022-12-04T09:31:21;86.20;;;36.90;;
5040;SDS011;2539;52.568;13.364;2022-12-04T09:33:48;94.23;;;41.03;;
5040;SDS011;2539;52.568;13.364;2022-12-04T09:36:16;83.47;;;36.60;;
5040;SDS011;2539;52.568;13.364;2022-12-04T09:38:45;101.00;;;46.20;;
5040;SDS011;2539;52.568;13.364;2022-12-04T09:41:16;78.07;;;37.90;;
5040;SDS011;2539;52.568;13.364;2022-12-04T09:44:03;94.80;;;39.83;;
5040;SDS011;2539;52.568;13.364;2022-12-04T09:46:39;75.77;;;34.40;;
5040;SDS011;2539;52.568;13.364;2022-12-04T09:49:46;87.03;;;39.53;;
5040;SDS011;2539;52.568;13.364;2022-12-04T09:52:37;88.03;;;36.60;;
5040;SDS011;2539;52.568;13.364;2022-12-04T09:55:05;85.20;;;36.00;;
5040;SDS011;2539;52.568;13.364;2022-12-04T09:57:44;77.47;;;36.67;;
5040;SDS011;2539;52.568;13.364;2022-12-04T10:00:14;83.57;;;37.83;;
5040;SDS011;2539;52.568;13.364;2022-12-04T10:02:50;88.63;;;36.93;;
5040;SDS011;2539;52.568;13.364;2022-12-04T10:05:43;83.57;;;38.90;;
5040;SDS011;2539;52.568;13.364;2022-12-04T10:08:29;84.83;;;37.40;;
5040;SDS011;2539;52.568;13.364;2022-12-04T10:11:21;77.33;;;37.27;;
5040;SDS011;2539;52.568;13.364;2022-12-04T10:14:12;82.27;;;36.80;;
5040;SDS011;2539;52.568;13.364;2022-12-04T10:19:52;88.80;;;37.03;;
5040;SDS011;2539;52.568;13.364;2022-12-04T10:22:52;81.97;;;34.97;;
5040;SDS011;2539;52.568;13.364;2022-12-04T10:25:35;91.03;;;36.10;;
5040;SDS011;2539;52.568;13.364;2022-12-04T10:28:24;89.30;;;37.70;;
5040;SDS011;2539;52.568;13.364;2022-12-04T10:30:58;96.83;;;41.50;;
5040;SDS011;2539;52.568;13.364;2022-12-04T10:33:46;90.03;;;38.03;;
5040;SDS011;2539;52.568;13.364;2022-12-04T10:36:26;86.20;;;32.73;;
5040;SDS011;2539;52.568;13.364;2022-12-04T10:38:59;87.40;;;34.20;;
5040;SDS011;2539;52.568;13.364;2022-12-04T10:41:57;90.37;;;36.83;;
5040;SDS011;2539;52.568;13.364;2022-12-04T10:44:50;92.40;;;39.80;;
5040;SDS011;2539;52.568;13.364;2022-12-04T10:47:16;81.87;;;36.77;;
5040;SDS011;2539;52.568;13.364;2022-12-04T10:49:43;92.40;;;37.80;;
5040;SDS011;2539;52.568;13.364;2022-12-04T10:52:10;91.40;;;37.57;;
5040;SDS011;2539;52.568;13.364;2022-12-04T10:54:45;94.97;;;39.37;;
5040;SDS011;2539;52.568;13.364;2022-12-04T10:57:15;97.27;;;37.50;;
5040;SDS011;2539;52.568;13.364;2022-12-04T10:59:48;92.17;;;37.23;;
5040;SDS011;2539;52.568;13.364;2022-12-04T11:02:25;90.30;;;35.10;;
5040;SDS011;2539;52.568;13.364;2022-12-04T11:04:57;86.03;;;37.13;;
5040;SDS011;2539;52.568;13.364;2022-12-04T11:07:28;88.53;;;35.80;;
5040;SDS011;2539;52.568;13.364;2022-12-04T11:09:57;101.53;;;38.67;;
5040;SDS011;2539;52.568;13.364;2022-12-04T11:12:28;104.07;;;37.63;;
5040;SDS011;2539;52.568;13.364;2022-12-04T11:15:01;84.67;;;36.03;;
5040;SDS011;2539;52.568;13.364;2022-12-04T11:17:38;85.97;;;34.30;;
5040;SDS011;2539;52.568;13.364;2022-12-04T11:20:14;109.97;;;39.03;;
5040;SDS011;2539;52.568;13.364;2022-12-04T11:22:47;111.50;;;40.30;;
5040;SDS011;2539;52.568;13.364;2022-12-04T11:25:18;86.60;;;38.00;;
5040;SDS011;2539;52.568;13.364;2022-12-04T11:27:47;94.33;;;39.10;;
5040;SDS011;2539;52.568;13.364;2022-12-04T11:30:20;85.20;;;37.80;;
5040;SDS011;2539;52.568;13.364;2022-12-04T11:32:53;86.20;;;34.40;;
5040;SDS011;2539;52.568;13.364;2022-12-04T11:35:21;99.47;;;38.53;;
5040;SDS011;2539;52.568;13.364;2022-12-04T11:38:03;87.23;;;37.80;;
5040;SDS011;2539;52.568;13.364;2022-12-04T11:40:37;79.47;;;36.33;;
5040;SDS011;2539;52.568;13.364;2022-12-04T11:45:37;91.60;;;37.27;;
5040;SDS011;2539;52.568;13.364;2022-12-04T11:48:14;87.20;;;38.47;;
5040;SDS011;2539;52.568;13.364;2022-12-04T11:53:32;85.37;;;37.27;;
5040;SDS011;2539;52.568;13.364;2022-12-04T11:56:30;98.03;;;37.73;;
5040;SDS011;2539;52.568;13.364;2022-12-04T12:04:57;87.20;;;40.33;;
5040;SDS011;2539;52.568;13.364;2022-12-04T12:13:44;81.10;;;35.30;;
5040;SDS011;2539;52.568;13.364;2022-12-04T12:16:42;79.53;;;34.07;;
5040;SDS011;2539;52.568;13.364;2022-12-04T12:19:38;75.10;;;34.70;;
5040;SDS011;2539;52.568;13.364;2022-12-04T12:22:57;84.63;;;34.57;;
5040;SDS011;2539;52.568;13.364;2022-12-04T12:25:15;72.77;;;31.93;;
5040;SDS011;2539;52.568;13.364;2022-12-04T12:30:42;80.77;;;35.90;;
5040;SDS011;2539;52.568;13.364;2022-12-04T12:33:25;90.73;;;35.50;;
5040;SDS011;2539;52.568;13.364;2022-12-04T12:38:28;82.43;;;35.20;;
5040;SDS011;2539;52.568;13.364;2022-12-04T12:41:21;71.97;;;31.67;;
5040;SDS011;2539;52.568;13.364;2022-12-04T12:43:52;84.67;;;35.77;;
5040;SDS011;2539;52.568;13.364;2022-12-04T12:46:27;89.97;;;36.77;;
5040;SDS011;2539;52.568;13.364;2022-12-04T12:49:01;81.27;;;37.30;;
5040;SDS011;2539;52.568;13.364;2022-12-04T12:51:41;84.40;;;37.20;;
5040;SDS011;2539;52.568;13.364;2022-12-04T12:54:14;84.67;;;35.53;;
5040;SDS011;2539;52.568;13.364;2022-12-04T12:57:46;83.10;;;36.50;;
5040;SDS011;2539;52.568;13.364;2022-12-04T12:59:57;79.27;;;34.97;;
5040;SDS011;2539;52.568;13.364;2022-12-04T13:02:35;71.53;;;33.50;;
5040;SDS011;2539;52.568;13.364;2022-12-04T13:05:10;81.63;;;38.00;;
5040;SDS011;2539;52.568;13.364;2022-12-04T13:07:57;73.83;;;34.83;;
5040;SDS011;2539;52.568;13.364;2022-12-04T13:10:40;86.27;;;36.80;;
5040;SDS011;2539;52.568;13.364;2022-12-04T13:13:13;82.90;;;36.43;;
5040;SDS011;2539;52.568;13.364;2022-12-04T13:15:49;84.97;;;34.80;;
5040;SDS011;2539;52.568;13.364;2022-12-04T13:18:34;82.50;;;36.10;;
5040;SDS011;2539;52.568;13.364;2022-12-04T13:21:06;87.80;;;36.97;;
5040;SDS011;2539;52.568;13.364;2022-12-04T13:23:41;81.90;;;36.83;;
5040;SDS011;2539;52.568;13.364;2022-12-04T13:31:36;84.63;;;37.10;;
5040;SDS011;2539;52.568;13.364;2022-12-04T13:34:50;76.80;;;33.50;;
5040;SDS011;2539;52.568;13.364;2022-12-04T13:37:34;84.97;;;34.90;;
5040;SDS011;2539;52.568;13.364;2022-12-04T13:40:26;82.20;;;34.47;;
5040;SDS011;2539;52.568;13.364;2022-12-04T13:45:54;76.83;;;33.10;;
5040;SDS011;2539;52.568;13.364;2022-12-04T13:48:27;82.27;;;35.10;;
5040;SDS011;2539;52.568;13.364;2022-12-04T13:53:30;88.73;;;36.10;;
5040;SDS011;2539;52.568;13.364;2022-12-04T13:55:57;85.80;;;36.30;;
5040;SDS011;2539;52.568;13.364;2022-12-04T13:58:26;99.40;;;38.33;;
5040;SDS011;2539;52.568;13.364;2022-12-04T14:01:19;89.87;;;35.60;;
5040;SDS011;2539;52.568;13.364;2022-12-04T14:03:53;89.40;;;37.83;;
5040;SDS011;2539;52.568;13.364;2022-12-04T14:06:23;88.07;;;36.07;;
5040;SDS011;2539;52.568;13.364;2022-12-04T14:08:55;88.50;;;34.70;;
5040;SDS011;2539;52.568;13.364;2022-12-04T14:11:24;84.27;;;33.90;;
5040;SDS011;2539;52.568;13.364;2022-12-04T14:13:53;84.40;;;36.47;;
5040;SDS011;2539;52.568;13.364;2022-12-04T14:16:35;96.50;;;35.80;;
5040;SDS011;2539;52.568;13.364;2022-12-04T14:19:05;90.33;;;35.97;;
5040;SDS011;2539;52.568;13.364;2022-12-04T14:21:42;106.93;;;40.50;;
5040;SDS011;2539;52.568;13.364;2022-12-04T14:24:42;95.77;;;35.20;;
5040;SDS011;2539;52.568;13.364;2022-12-04T14:30:17;90.70;;;37.67;;
5040;SDS011;2539;52.568;13.364;2022-12-04T14:32:51;94.60;;;37.10;;
5040;SDS011;2539;52.568;13.364;2022-12-04T14:35:24;90.57;;;37.10;;
5040;SDS011;2539;52.568;13.364;2022-12-04T14:37:56;93.43;;;36.77;;
5040;SDS011;2539;52.568;13.364;2022-12-04T14:40:26;98.67;;;37.43;;
5040;SDS011;2539;52.568;13.364;2022-12-04T14:42:54;89.73;;;34.97;;
5040;SDS011;2539;52.568;13.364;2022-12-04T14:45:25;93.57;;;38.30;;
5040;SDS011;2539;52.568;13.364;2022-12-04T14:53:42;97.27;;;36.20;;
5040;SDS011;2539;52.568;13.364;2022-12-04T14:59:16;104.53;;;38.63;;
5040;SDS011;2539;52.568;13.364;2022-12-04T15:01:44;115.87;;;55.30;;
5040;SDS011;2539;52.568;13.364;2022-12-04T15:04:20;100.57;;;38.97;;
5040;SDS011;2539;52.568;13.364;2022-12-04T15:06:50;102.63;;;37.60;;
5040;SDS011;2539;52.568;13.364;2022-12-04T15:09:22;98.30;;;37.80;;
5040;SDS011;2539;52.568;13.364;2022-12-04T15:15:07;93.87;;;31.87;;
5040;SDS011;2539;52.568;13.364;2022-12-04T15:17:38;89.13;;;33.63;;
5040;SDS011;2539;52.568;13.364;2022-12-04T15:20:15;101.67;;;35.10;;
5040;SDS011;2539;52.568;13.364;2022-12-04T15:22:43;97.10;;;35.77;;
5040;SDS011;2539;52.568;13.364;2022-12-04T15:25:18;108.63;;;40.17;;
5040;SDS011;2539;52.568;13.364;2022-12-04T15:27:47;106.93;;;40.17;;
5040;SDS011;2539;52.568;13.364;2022-12-04T15:30:18;106.67;;;39.37;;
5040;SDS011;2539;52.568;13.364;2022-12-04T15:32:48;109.33;;;37.80;;
5040;SDS011;2539;52.568;13.364;2022-12-04T15:35:20;100.80;;;37.70;;
5040;SDS011;2539;52.568;13.364;2022-12-04T15:37:52;106.40;;;38.17;;
5040;SDS011;2539;52.568;13.364;2022-12-04T15:40:21;117.00;;;39.20;;
5040;SDS011;2539;52.568;13.364;2022-12-04T15:42:49;116.50;;;40.60;;
5040;SDS011;2539;52.568;13.364;2022-12-04T15:52:46;103.57;;;37.80;;
5040;SDS011;2539;52.568;13.364;2022-12-04T15:55:15;102.90;;;37.70;;
5040;SDS011;2539;52.568;13.364;2022-12-04T15:57:49;120.10;;;41.97;;
5040;SDS011;2539;52.568;13.364;2022-12-04T16:02:46;119.23;;;41.40;;
5040;SDS011;2539;52.568;13.364;2022-12-04T16:05:22;109.03;;;41.53;;
5040;SDS011;2539;52.568;13.364;2022-12-04T16:07:58;117.27;;;41.77;;
5040;SDS011;2539;52.568;13.364;2022-12-04T16:13:02;119.03;;;40.80;;
5040;SDS011;2539;52.568;13.364;2022-12-04T16:18:04;110.90;;;39.50;;
5040;SDS011;2539;52.568;13.364;2022-12-04T16:20:35;119.37;;;39.63;;
5040;SDS011;2539;52.568;13.364;2022-12-04T16:23:03;108.73;;;40.60;;
5040;SDS011;2539;52.568;13.364;2022-12-04T16:25:30;134.30;;;41.70;;
5040;SDS011;2539;52.568;13.364;2022-12-04T16:27:56;119.03;;;41.90;;
5040;SDS011;2539;52.568;13.364;2022-12-04T16:30:24;125.30;;;41.53;;
5040;SDS011;2539;52.568;13.364;2022-12-04T16:32:51;125.50;;;42.63;;